Time;durP1;ratioP1;P1;durP2;ratioP2;P2;SDS_P1;SDS_P2;PMS_P1;PMS_P2;Temp;Humidity;BMP_temperature;BMP_pressure;BME280_temperature;BME280_humidity;BME280_pressure;Samples;Min_cycle;Max_cycle;Signal;HPM_P1;HPM_P2
2022/12/20 00:02:08;;;;;;;;;;;;;;;28.09;47.85;99018.77;611210;232;67344;-68
2022/12/20 00:04:36;;;;;;;;;;;;;;;28.08;45.58;99025.27;611292;232;64882;-68
2022/12/20 00:07:03;;;;;;;;;;;;;;;28.08;46.97;99019.86;611235;232;67225;-68
2022/12/20 00:09:31;;;;;;;;;;;;;;;28.07;46.36;99029.03;611257;232;67072;-68
2022/12/20 00:11:58;;;;;;;;;;;;;;;28.08;45.82;99025.27;611213;232;65012;-68
2022/12/20 00:14:25;;;;;;;;;;;;;;;28.06;46.19;99030.92;611236;232;67190;-68
2022/12/20 00:16:53;;;;;;;;;;;;;;;28.06;46.85;99039.03;611289;232;64868;-68
2022/12/20 00:19:20;;;;;;;;;;;;;;;28.06;46.44;99036.33;611280;232;62757;-68
2022/12/20 00:21:48;;;;;;;;;;;;;;;28.04;47.16;99033.08;611229;232;67058;-68
2022/12/20 00:24:16;;;;;;;;;;;;;;;28.06;45.89;99033.63;611217;232;65786;-68
2022/12/20 00:26:43;;;;;;;;;;;;;;;28.05;45.99;99033.91;611188;232;63126;-68
2022/12/20 00:29:11;;;;;;;;;;;;;;;28.03;46.54;99030.66;611180;232;67297;-68
2022/12/20 00:31:38;;;;;;;;;;;;;;;28.03;46.16;99039.58;611272;232;65043;-68
2022/12/20 00:34:08;;;;;;;;;;;;;;;28.03;47.06;99039.58;611247;232;41599;-68
2022/12/20 00:36:39;;;;;;;;;;;;;;;28.02;45.46;99029.86;611217;232;67231;-68
2022/12/20 00:39:07;;;;;;;;;;;;;;;28.02;46.65;99021.75;611218;232;67165;-68
2022/12/20 00:41:35;;;;;;;;;;;;;;;28.01;46.54;99022.00;611230;232;65149;-68
2022/12/20 00:44:03;;;;;;;;;;;;;;;28.01;47.29;99022.81;611321;232;64594;-68
2022/12/20 00:46:31;;;;;;;;;;;;;;;28.00;48.22;99013.09;611250;232;64371;-68
2022/12/20 00:48:59;;;;;;;;;;;;;;;27.99;45.93;99007.94;611224;232;65753;-68
2022/12/20 00:51:28;;;;;;;;;;;;;;;28.00;46.69;99009.58;611182;232;66892;-68
2022/12/20 00:53:55;;;;;;;;;;;;;;;27.98;46.58;99007.13;611235;232;64555;-68
2022/12/20 00:56:23;;;;;;;;;;;;;;;27.98;47.25;98999.03;611299;232;62777;-71
2022/12/20 00:58:52;;;;;;;;;;;;;;;27.97;46.56;99000.12;611234;232;64824;-70
2022/12/20 01:01:21;;;;;;;;;;;;;;;27.97;46.36;99005.52;611269;232;66733;-71
2022/12/20 01:03:49;;;;;;;;;;;;;;;27.96;47.30;98997.67;611267;232;64915;-70
2022/12/20 01:06:17;;;;;;;;;;;;;;;27.95;47.31;98986.06;611232;232;64567;-71
2022/12/20 01:08:44;;;;;;;;;;;;;;;27.94;47.31;98989.85;611320;232;65239;-71
2022/12/20 01:11:20;;;;;;;;;;;;;;;27.94;48.15;98981.75;611255;232;65037;-71
2022/12/20 01:13:49;;;;;;;;;;;;;;;27.94;46.34;98978.20;611037;232;67358;-70
2022/12/20 01:16:18;;;;;;;;;;;;;;;27.93;47.29;98993.61;611204;232;67280;-70
2022/12/20 01:18:47;;;;;;;;;;;;;;;27.92;46.42;98989.30;611264;232;63044;-67
2022/12/20 01:21:15;;;;;;;;;;;;;;;27.92;47.48;98986.60;611242;232;67321;-67
2022/12/20 01:23:43;;;;;;;;;;;;;;;27.91;47.06;98979.59;611321;232;67379;-68
2022/12/20 01:26:12;;;;;;;;;;;;;;;27.91;47.23;98984.16;611262;232;64784;-68
2022/12/20 01:28:40;;;;;;;;;;;;;;;27.90;46.58;98967.14;611235;232;64926;-68
2022/12/20 01:31:10;;;;;;;;;;;;;;;27.89;47.51;98969.03;611222;232;67099;-67
2022/12/20 01:33:37;;;;;;;;;;;;;;;27.89;46.61;98965.53;611274;232;65065;-68
2022/12/20 01:36:06;;;;;;;;;;;;;;;27.88;47.95;98958.48;611270;232;67701;-68
2022/12/20 01:38:34;;;;;;;;;;;;;;;27.87;46.75;98960.38;611238;232;65846;-68
2022/12/20 01:41:02;;;;;;;;;;;;;;;27.88;47.10;98961.18;611225;232;63210;-68
2022/12/20 01:43:46;;;;;;;;;;;;;;;27.87;47.71;98960.38;611212;232;67358;-68
2022/12/20 01:46:14;;;;;;;;;;;;;;;27.87;47.28;98963.08;611236;232;64825;-68
2022/12/20 01:48:43;;;;;;;;;;;;;;;27.86;47.54;98961.47;611221;232;64773;-71
2022/12/20 01:51:11;;;;;;;;;;;;;;;27.87;46.09;98962.27;611314;232;67179;-71
2022/12/20 01:53:38;;;;;;;;;;;;;;;27.86;47.74;98961.47;611245;232;67000;-68
2022/12/20 01:56:07;;;;;;;;;;;;;;;27.86;47.39;98955.27;611207;232;65183;-68
2022/12/20 01:58:36;;;;;;;;;;;;;;;27.85;46.58;98951.72;611276;232;67266;-68
2022/12/20 02:01:03;;;;;;;;;;;;;;;27.84;45.35;98943.91;611253;232;66818;-70
2022/12/20 02:03:32;;;;;;;;;;;;;;;27.85;47.17;98940.91;611284;232;62694;-70
2022/12/20 02:06:01;;;;;;;;;;;;;;;27.84;46.26;98938.50;611220;232;67709;-71
2022/12/20 02:08:28;;;;;;;;;;;;;;;27.84;48.43;98925.80;610739;232;66960;-71
2022/12/20 02:10:58;;;;;;;;;;;;;;;27.84;45.87;98933.09;611250;232;64887;-71
2022/12/20 02:13:33;;;;;;;;;;;;;;;27.82;46.16;98933.36;611254;232;67276;-68
2022/12/20 02:16:00;;;;;;;;;;;;;;;27.84;47.33;98924.99;611260;232;66999;-70
2022/12/20 02:18:38;;;;;;;;;;;;;;;27.84;46.83;98927.70;611284;232;63873;-71
2022/12/20 02:21:10;;;;;;;;;;;;;;;27.82;45.75;98921.73;611092;232;64608;-71
2022/12/20 02:23:56;;;;;;;;;;;;;;;27.82;47.44;98921.73;611168;232;66839;-72
2022/12/20 02:26:28;;;;;;;;;;;;;;;27.82;46.45;98919.04;611240;232;62823;-71
2022/12/20 02:29:03;;;;;;;;;;;;;;;27.82;44.83;98924.44;609581;232;68049;-71
2022/12/20 02:31:32;;;;;;;;;;;;;;;27.82;47.64;98916.34;608539;233;65110;-68
2022/12/20 02:34:01;;;;;;;;;;;;;;;27.80;46.33;98916.63;608621;233;65692;-68
2022/12/20 02:36:29;;;;;;;;;;;;;;;27.80;46.42;98913.09;608579;233;64692;-68
2022/12/20 02:38:57;;;;;;;;;;;;;;;27.80;46.55;98919.33;608616;233;67044;-69
2022/12/20 02:41:35;;;;;;;;;;;;;;;27.79;46.76;98914.15;608570;233;65848;-69
2022/12/20 02:46:50;;;;;;;;;;;;;;;27.79;47.58;98906.05;608589;233;64857;-68
2022/12/20 02:49:20;;;;;;;;;;;;;;;27.77;48.52;98903.59;608646;233;65095;-68
2022/12/20 02:51:49;;;;;;;;;;;;;;;27.77;48.48;98902.80;608580;233;65583;-68
2022/12/20 02:54:17;;;;;;;;;;;;;;;27.78;48.51;98904.44;608557;233;64839;-68
2022/12/20 02:56:51;;;;;;;;;;;;;;;27.77;47.66;98910.90;608546;233;65182;-68
2022/12/20 02:59:20;;;;;;;;;;;;;;;27.77;47.21;98898.20;608583;233;64929;-68
2022/12/20 03:01:49;;;;;;;;;;;;;;;27.76;47.14;98895.78;608541;233;64571;-68
2022/12/20 03:04:17;;;;;;;;;;;;;;;27.75;47.29;98899.58;608360;232;63757;-68
2022/12/20 03:07:04;;;;;;;;;;;;;;;27.74;47.40;98893.34;608576;233;67453;-70
2022/12/20 03:09:32;;;;;;;;;;;;;;;27.74;47.85;98884.43;608562;233;64665;-70
2022/12/20 03:12:00;;;;;;;;;;;;;;;27.74;47.71;98881.73;608586;233;65118;-71
2022/12/20 03:14:28;;;;;;;;;;;;;;;27.72;46.53;98873.91;608587;233;68070;-70
2022/12/20 03:16:57;;;;;;;;;;;;;;;27.72;47.76;98873.08;608621;233;67378;-70
2022/12/20 03:19:24;;;;;;;;;;;;;;;27.71;47.82;98876.87;608584;233;65006;-70
2022/12/20 03:21:52;;;;;;;;;;;;;;;27.71;48.56;98874.17;608550;233;64838;-70
2022/12/20 03:24:20;;;;;;;;;;;;;;;27.70;46.61;98880.66;608586;233;65036;-71
2022/12/20 03:26:48;;;;;;;;;;;;;;;27.70;48.59;98886.88;608550;233;63187;-70
2022/12/20 03:29:17;;;;;;;;;;;;;;;27.69;47.75;98887.93;610542;232;67108;-71
2022/12/20 03:31:45;;;;;;;;;;;;;;;27.69;48.46;98890.63;611269;232;64508;-71
2022/12/20 03:34:13;;;;;;;;;;;;;;;27.67;46.81;98887.41;611238;232;62765;-68
2022/12/20 03:36:40;;;;;;;;;;;;;;;27.67;48.28;98885.52;611216;232;67238;-68
2022/12/20 03:39:08;;;;;;;;;;;;;;;27.66;48.71;98886.61;611264;232;66679;-68
2022/12/20 03:41:37;;;;;;;;;;;;;;;27.66;47.15;98896.58;611244;232;42635;-68
2022/12/20 03:44:05;;;;;;;;;;;;;;;27.65;47.40;98879.56;611291;232;64393;-68
2022/12/20 03:46:32;;;;;;;;;;;;;;;27.64;47.94;98877.95;611166;232;65156;-68
2022/12/20 03:48:59;;;;;;;;;;;;;;;27.64;48.34;98886.06;611213;232;63838;-68
2022/12/20 03:51:28;;;;;;;;;;;;;;;27.63;44.29;98884.42;611212;232;67537;-68
2022/12/20 03:53:55;;;;;;;;;;;;;;;27.62;48.59;98880.11;611240;232;66892;-68
2022/12/20 03:56:25;;;;;;;;;;;;;;;27.61;46.85;98886.61;611161;232;43739;-68
2022/12/20 03:58:52;;;;;;;;;;;;;;;27.61;48.15;98883.06;611203;231;67227;-68
2022/12/20 04:01:21;;;;;;;;;;;;;;;27.61;49.22;98888.47;611215;232;64862;-68
2022/12/20 04:03:49;;;;;;;;;;;;;;;27.59;49.29;98894.16;611043;232;65459;-68
2022/12/20 04:06:17;;;;;;;;;;;;;;;27.58;48.24;98889.84;611235;232;64632;-68
2022/12/20 04:08:45;;;;;;;;;;;;;;;27.58;49.38;98889.02;611265;232;66874;-68
2022/12/20 04:11:17;;;;;;;;;;;;;;;27.57;48.51;98893.61;611262;232;42983;-68
2022/12/20 04:13:48;;;;;;;;;;;;;;;27.56;48.43;98892.00;610865;232;49903;-68
2022/12/20 04:16:17;;;;;;;;;;;;;;;27.56;49.81;98896.59;611185;232;64778;-68
2022/12/20 04:18:45;;;;;;;;;;;;;;;27.54;49.23;98890.64;611229;232;65670;-68
2022/12/20 04:21:13;;;;;;;;;;;;;;;27.52;43.72;98893.59;611233;232;67061;-68
2022/12/20 04:23:43;;;;;;;;;;;;;;;27.53;48.68;98892.54;611315;232;44272;-68
2022/12/20 04:26:12;;;;;;;;;;;;;;;27.53;50.36;98887.14;611189;232;65078;-68
2022/12/20 04:28:39;;;;;;;;;;;;;;;27.51;48.03;98891.99;609864;232;67287;-68
2022/12/20 04:31:09;;;;;;;;;;;;;;;27.51;50.28;98889.29;608592;232;45500;-68
2022/12/20 04:33:37;;;;;;;;;;;;;;;27.49;49.08;98887.94;608567;233;62954;-68
2022/12/20 04:36:05;;;;;;;;;;;;;;;27.48;49.62;98884.43;608610;233;67182;-68
2022/12/20 04:38:34;;;;;;;;;;;;;;;27.46;50.80;98878.48;608549;233;64386;-68
2022/12/20 04:41:01;;;;;;;;;;;;;;;27.46;51.28;98878.48;608599;233;64932;-68
2022/12/20 04:43:31;;;;;;;;;;;;;;;27.44;49.60;98883.33;608462;232;45427;-68
2022/12/20 04:45:59;;;;;;;;;;;;;;;27.43;49.49;98871.72;608588;233;67360;-68
2022/12/20 04:48:27;;;;;;;;;;;;;;;27.44;49.49;98872.53;608632;233;62778;-68
2022/12/20 04:50:55;;;;;;;;;;;;;;;27.43;51.32;98869.03;608660;233;64840;-68
2022/12/20 04:56:09;;;;;;;;;;;;;;;27.41;49.94;98867.67;608609;233;65658;-71
2022/12/20 04:58:37;;;;;;;;;;;;;;;27.39;51.57;98870.66;608592;233;68827;-71
2022/12/20 05:01:05;;;;;;;;;;;;;;;27.38;50.84;98873.61;608604;233;64284;-71
2022/12/20 05:03:34;;;;;;;;;;;;;;;27.37;52.63;98864.70;608465;232;43754;-68
2022/12/20 05:06:02;;;;;;;;;;;;;;;27.36;51.16;98867.66;608636;233;66906;-68
2022/12/20 05:08:30;;;;;;;;;;;;;;;27.34;52.18;98861.74;608613;233;64470;-68
2022/12/20 05:10:57;;;;;;;;;;;;;;;27.34;52.18;98856.34;608597;233;62809;-69
2022/12/20 05:13:25;;;;;;;;;;;;;;;27.33;51.17;98855.51;608620;233;67293;-69
2022/12/20 05:15:53;;;;;;;;;;;;;;;27.31;52.51;98856.85;608618;233;66698;-69
2022/12/20 05:18:23;;;;;;;;;;;;;;;27.32;50.72;98856.59;608671;232;43843;-70
2022/12/20 05:26:31;;;;;;;;;;;;;;;27.30;51.37;98850.65;608533;233;65710;-72
2022/12/20 05:29:00;;;;;;;;;;;;;;;27.30;52.83;98860.64;610290;232;67742;-71
2022/12/20 05:31:28;;;;;;;;;;;;;;;27.29;53.31;98854.44;611227;232;67397;-71
2022/12/20 05:33:56;;;;;;;;;;;;;;;27.27;50.55;98850.38;611276;232;65158;-71
2022/12/20 05:36:25;;;;;;;;;;;;;;;27.28;51.93;98860.09;611261;231;48577;-71
2022/12/20 05:38:55;;;;;;;;;;;;;;;27.27;49.40;98853.08;611276;232;44242;-71
2022/12/20 05:41:23;;;;;;;;;;;;;;;27.27;52.11;98853.08;611239;232;64941;-71
2022/12/20 05:43:51;;;;;;;;;;;;;;;27.27;52.06;98858.48;611231;232;67611;-71
2022/12/20 05:46:19;;;;;;;;;;;;;;;27.27;52.79;98855.78;611283;232;64602;-71
2022/12/20 05:48:57;;;;;;;;;;;;;;;27.26;51.50;98849.58;610845;232;47597;-71
2022/12/20 05:51:25;;;;;;;;;;;;;;;27.26;50.97;98844.18;611215;232;67996;-71
2022/12/20 05:54:00;;;;;;;;;;;;;;;27.28;51.10;98844.70;611209;232;45371;-71
2022/12/20 05:56:44;;;;;;;;;;;;;;;27.28;51.08;98854.70;610836;232;45182;-70
2022/12/20 05:59:12;;;;;;;;;;;;;;;27.28;51.97;98854.70;611227;232;67373;-70
2022/12/20 06:01:40;;;;;;;;;;;;;;;27.28;49.94;98847.40;611304;232;67218;-70
2022/12/20 06:04:07;;;;;;;;;;;;;;;27.29;50.92;98851.73;611213;232;62839;-71
2022/12/20 06:06:35;;;;;;;;;;;;;;;27.29;51.30;98842.84;611271;232;64871;-71
2022/12/20 06:09:03;;;;;;;;;;;;;;;27.29;51.00;98845.53;611297;232;66322;-71
2022/12/20 06:11:33;;;;;;;;;;;;;;;27.30;50.76;98837.16;611115;232;42585;-71
2022/12/20 06:14:02;;;;;;;;;;;;;;;27.30;48.53;98842.55;611212;232;44393;-70
2022/12/20 06:16:30;;;;;;;;;;;;;;;27.30;50.07;98850.65;611001;232;67462;-71
2022/12/20 06:18:59;;;;;;;;;;;;;;;27.31;48.25;98846.89;606385;232;62477;-70
2022/12/20 06:21:27;;;;;;;;;;;;;;;27.32;51.00;98850.39;611289;232;66952;-70
2022/12/20 06:23:55;;;;;;;;;;;;;;;27.32;48.62;98847.70;611264;232;64277;-70
2022/12/20 06:26:23;;;;;;;;;;;;;;;27.33;47.06;98844.70;611253;232;65190;-67
2022/12/20 06:28:53;;;;;;;;;;;;;;;27.34;47.57;98850.95;609697;232;64017;-67
2022/12/20 06:31:28;;;;;;;;;;;;;;;27.34;47.55;98851.75;607927;233;46873;-67
2022/12/20 06:33:56;;;;;;;;;;;;;;;27.36;47.59;98854.97;608622;233;64907;-67
2022/12/20 06:36:25;;;;;;;;;;;;;;;27.36;50.91;98852.27;608574;232;45334;-67
2022/12/20 06:38:53;;;;;;;;;;;;;;;27.36;46.97;98851.46;608614;233;64248;-67
2022/12/20 06:41:21;;;;;;;;;;;;;;;27.37;48.19;98850.41;608604;233;63008;-67
2022/12/20 06:43:48;;;;;;;;;;;;;;;27.36;47.96;98844.17;608594;233;65828;-68
2022/12/20 06:46:16;;;;;;;;;;;;;;;27.38;46.70;98841.21;608601;233;64523;-67
2022/12/20 06:48:44;;;;;;;;;;;;;;;27.38;45.55;98838.52;608582;233;65700;-67
2022/12/20 06:51:12;;;;;;;;;;;;;;;27.39;47.13;98837.42;608585;233;67556;-67
2022/12/20 06:53:40;;;;;;;;;;;;;;;27.38;47.75;98830.41;608536;233;64452;-67
2022/12/20 06:56:07;;;;;;;;;;;;;;;27.39;48.12;98834.72;608600;233;64908;-67
2022/12/20 06:58:36;;;;;;;;;;;;;;;27.40;48.07;98833.66;608587;233;66756;-66
2022/12/20 07:01:03;;;;;;;;;;;;;;;27.38;45.31;98830.41;608594;233;66878;-67
2022/12/20 07:03:31;;;;;;;;;;;;;;;27.34;51.10;98832.85;608585;233;65262;-65
2022/12/20 07:05:58;;;;;;;;;;;;;;;27.33;47.81;98833.11;608563;233;66903;-67
2022/12/20 07:08:26;;;;;;;;;;;;;;;27.32;46.22;98831.50;607941;233;66643;-67
2022/12/20 07:10:53;;;;;;;;;;;;;;;27.28;45.37;98822.30;602780;232;65106;-66
2022/12/20 07:13:21;;;;;;;;;;;;;;;27.28;46.51;98817.70;601550;236;66808;-65
2022/12/20 07:15:49;;;;;;;;;;;;;;;27.28;46.42;98811.50;601452;236;64941;-67
2022/12/20 07:18:16;;;;;;;;;;;;;;;27.27;48.43;98813.40;606391;232;62950;-67
2022/12/20 07:20:44;;;;;;;;;;;;;;;27.26;47.21;98806.39;609702;232;66817;-67
2022/12/20 07:23:15;;;;;;;;;;;;;;;27.27;46.73;98801.80;609582;232;66594;-67
2022/12/20 07:25:42;;;;;;;;;;;;;;;27.27;45.62;98802.60;608551;232;64999;-67
2022/12/20 07:28:10;;;;;;;;;;;;;;;27.28;45.84;98789.91;608411;232;66751;-68
2022/12/20 07:30:39;;;;;;;;;;;;;;;27.27;41.28;98791.80;610215;232;64806;-70
2022/12/20 07:33:10;;;;;;;;;;;;;;;27.26;44.23;98790.20;610300;232;46662;-68
2022/12/20 07:35:40;;;;;;;;;;;;;;;27.25;45.67;98779.66;610401;232;66761;-67
2022/12/20 07:38:08;;;;;;;;;;;;;;;27.23;48.96;98782.64;610447;232;66691;-69
2022/12/20 07:40:35;;;;;;;;;;;;;;;27.19;46.00;98779.65;610462;232;62672;-67
2022/12/20 07:43:03;;;;;;;;;;;;;;;27.19;48.41;98785.05;609128;232;64683;-68
2022/12/20 07:45:30;;;;;;;;;;;;;;;27.19;47.48;98782.34;610460;232;64703;-68
2022/12/20 07:47:58;;;;;;;;;;;;;;;27.19;45.48;98778.84;610469;232;62967;-68
2022/12/20 07:50:26;;;;;;;;;;;;;;;27.19;46.08;98785.05;609917;232;66790;-68
2022/12/20 07:52:54;;;;;;;;;;;;;;;27.18;46.17;98778.05;610386;232;66816;-68
2022/12/20 07:55:24;;;;;;;;;;;;;;;27.19;49.53;98776.95;610241;232;48140;-68
2022/12/20 07:57:53;;;;;;;;;;;;;;;27.18;49.23;98775.34;610329;232;67306;-68
2022/12/20 08:00:20;;;;;;;;;;;;;;;27.18;46.69;98775.34;610490;232;64694;-68
2022/12/20 08:02:49;;;;;;;;;;;;;;;27.18;47.31;98785.33;609563;232;63061;-68
2022/12/20 08:05:23;;;;;;;;;;;;;;;27.18;48.72;98780.73;609713;232;64718;-67
2022/12/20 08:07:46;;;;;;;;;;;;;;;27.19;48.72;98776.95;609514;232;64917;-66
2022/12/20 08:10:15;;;;;;;;;;;;;;;27.19;46.39;98779.65;610016;232;62928;-68
2022/12/20 08:12:44;;;;;;;;;;;;;;;27.20;46.41;98775.89;610339;232;64969;-68
2022/12/20 08:15:11;;;;;;;;;;;;;;;27.20;45.73;98775.89;610364;232;66896;-70
2022/12/20 08:17:40;;;;;;;;;;;;;;;27.20;47.04;98777.75;609764;232;66370;-67
2022/12/20 08:20:08;;;;;;;;;;;;;;;27.21;47.72;98776.70;603527;235;66986;-69
2022/12/20 08:22:37;;;;;;;;;;;;;;;27.22;46.54;98779.11;603587;235;66834;-66
2022/12/20 08:25:07;;;;;;;;;;;;;;;27.23;46.39;98774.55;609368;232;65069;-68
2022/12/20 08:27:35;;;;;;;;;;;;;;;27.25;48.11;98776.95;609194;232;67119;-68
2022/12/20 08:30:06;;;;;;;;;;;;;;;27.26;49.79;98779.40;611059;231;66745;-67
2022/12/20 08:32:35;;;;;;;;;;;;;;;27.26;48.08;98774.00;611198;232;63023;-67
2022/12/20 08:35:04;;;;;;;;;;;;;;;27.28;45.73;98771.02;606310;232;67043;-67
2022/12/20 08:37:35;;;;;;;;;;;;;;;27.30;45.80;98763.47;611231;232;66384;-66
2022/12/20 08:40:03;;;;;;;;;;;;;;;27.32;45.84;98764.02;609607;232;62744;-68
2022/12/20 08:42:37;;;;;;;;;;;;;;;27.32;46.03;98759.41;609903;232;48294;-67
2022/12/20 08:45:05;;;;;;;;;;;;;;;27.34;46.79;98759.96;610409;232;66924;-68
2022/12/20 08:47:32;;;;;;;;;;;;;;;27.35;45.83;98761.57;610303;232;65019;-68
2022/12/20 08:50:00;;;;;;;;;;;;;;;27.38;43.81;98757.52;609660;232;66840;-68
2022/12/20 08:52:30;;;;;;;;;;;;;;;27.39;46.60;98759.13;609809;232;66946;-68
2022/12/20 08:55:01;;;;;;;;;;;;;;;27.41;45.83;98743.48;602697;235;65007;-67
2022/12/20 08:57:28;;;;;;;;;;;;;;;27.42;44.00;98734.31;602698;235;66931;-67
2022/12/20 08:59:56;;;;;;;;;;;;;;;27.42;47.21;98731.61;602776;235;64292;-67
2022/12/20 09:02:25;;;;;;;;;;;;;;;27.40;46.42;98720.27;602760;235;64929;-68
2022/12/20 09:04:54;;;;;;;;;;;;;;;27.41;43.68;98722.68;602711;235;64180;-68
2022/12/20 09:07:23;;;;;;;;;;;;;;;27.43;45.20;98717.02;602765;235;66240;-67
2022/12/20 09:09:51;;;;;;;;;;;;;;;27.43;44.78;98709.73;608500;232;64878;-67
2022/12/20 09:12:20;;;;;;;;;;;;;;;27.45;45.23;98706.77;610671;232;67742;-68
2022/12/20 09:14:48;;;;;;;;;;;;;;;27.45;42.42;98696.77;610894;232;66419;-67
2022/12/20 09:17:16;;;;;;;;;;;;;;;27.48;45.02;98697.31;610045;232;64971;-68
2022/12/20 09:19:44;;;;;;;;;;;;;;;27.49;45.83;98693.52;610299;232;66597;-68
2022/12/20 09:22:11;;;;;;;;;;;;;;;27.49;44.58;98682.72;610877;232;66486;-67
2022/12/20 09:24:39;;;;;;;;;;;;;;;27.52;41.34;98682.97;610461;232;62714;-68
2022/12/20 09:27:08;;;;;;;;;;;;;;;27.54;44.80;98671.91;610888;232;64383;-68
2022/12/20 09:29:37;;;;;;;;;;;;;;;27.54;44.97;98667.31;610652;232;64590;-68
2022/12/20 09:32:07;;;;;;;;;;;;;;;27.56;41.91;98659.75;610860;232;63789;-68
2022/12/20 09:34:38;;;;;;;;;;;;;;;27.60;42.56;98668.91;610399;232;66757;-68
2022/12/20 09:37:09;;;;;;;;;;;;;;;27.62;39.80;98661.34;610061;232;66989;-68
2022/12/20 09:39:41;;;;;;;;;;;;;;;27.63;42.22;98654.85;604554;232;46227;-67
2022/12/20 09:42:11;;;;;;;;;;;;;;;27.65;42.80;98652.69;610118;232;44778;-68
2022/12/20 09:44:41;;;;;;;;;;;;;;;27.66;45.58;98648.09;611021;232;66782;-68
2022/12/20 09:47:18;;;;;;;;;;;;;;;27.68;44.24;98651.33;610787;232;45004;-67
2022/12/20 09:49:49;;;;;;;;;;;;;;;27.70;42.15;98653.77;610543;232;48182;-70
2022/12/20 09:52:30;;;;;;;;;;;;;;;27.73;39.26;98653.22;610446;232;66281;-68
2022/12/20 09:55:12;;;;;;;;;;;;;;;27.77;38.98;98640.77;609725;232;65251;-67
2022/12/20 09:57:44;;;;;;;;;;;;;;;27.81;38.83;98631.87;610917;232;66937;-69
2022/12/20 10:00:17;;;;;;;;;;;;;;;27.82;38.82;98632.67;610951;231;48368;-67
2022/12/20 10:02:48;;;;;;;;;;;;;;;27.83;38.86;98624.30;611218;232;64916;-67
2022/12/20 10:05:36;;;;;;;;;;;;;;;27.85;41.26;98619.41;609488;232;48948;-67
2022/12/20 10:08:20;;;;;;;;;;;;;;;27.85;38.20;98610.50;603661;235;64688;-67
2022/12/20 10:10:49;;;;;;;;;;;;;;;27.88;39.04;98608.07;609901;232;65281;-67
2022/12/20 10:13:27;;;;;;;;;;;;;;;27.90;40.18;98594.27;609845;232;66687;-67
2022/12/20 10:15:57;;;;;;;;;;;;;;;27.92;39.24;98589.40;610709;232;66951;-66
2022/12/20 10:18:29;;;;;;;;;;;;;;;27.92;42.15;98585.89;610693;232;65129;-67
2022/12/20 10:21:14;;;;;;;;;;;;;;;27.91;40.88;98585.09;610004;232;65527;-66
2022/12/20 10:23:55;;;;;;;;;;;;;;;27.91;41.59;98574.29;610734;232;64817;-67
2022/12/20 10:26:24;;;;;;;;;;;;;;;27.92;39.48;98570.48;610407;231;63800;-67
2022/12/20 10:28:54;;;;;;;;;;;;;;;27.93;42.82;98563.19;609805;232;45204;-66
2022/12/20 10:31:21;;;;;;;;;;;;;;;27.93;41.28;98555.88;611998;232;64888;-66
2022/12/20 10:33:49;;;;;;;;;;;;;;;27.96;40.22;98551.81;611311;232;65042;-66
2022/12/20 10:36:21;;;;;;;;;;;;;;;27.95;44.47;98547.51;608589;231;64989;-65
2022/12/20 10:38:50;;;;;;;;;;;;;;;27.94;44.95;98543.17;602005;235;67031;-66
2022/12/20 10:41:19;;;;;;;;;;;;;;;27.92;40.24;98532.66;601989;235;65099;-66
2022/12/20 10:43:48;;;;;;;;;;;;;;;27.94;42.53;98533.20;602044;235;67239;-66
2022/12/20 10:46:18;;;;;;;;;;;;;;;27.98;42.57;98519.92;605805;232;67051;-67
2022/12/20 10:48:48;;;;;;;;;;;;;;;27.99;41.15;98518.82;611288;232;45135;-68
2022/12/20 10:51:19;;;;;;;;;;;;;;;28.01;42.12;98503.95;611029;232;64983;-66
2022/12/20 10:53:51;;;;;;;;;;;;;;;28.02;42.86;98499.34;611548;232;64768;-66
2022/12/20 10:56:29;;;;;;;;;;;;;;;28.05;42.14;98493.41;612043;232;46371;-67
2022/12/20 10:58:59;;;;;;;;;;;;;;;28.06;42.48;98490.40;611469;232;65177;-67
2022/12/20 11:01:32;;;;;;;;;;;;;;;28.07;43.28;98486.63;611659;231;45422;-68
2022/12/20 11:04:05;;;;;;;;;;;;;;;28.08;42.53;98482.83;612008;232;62886;-65
2022/12/20 11:06:41;;;;;;;;;;;;;;;28.09;40.95;98472.81;612014;232;67274;-66
2022/12/20 11:09:19;;;;;;;;;;;;;;;28.09;42.75;98462.81;611988;232;65430;-67
2022/12/20 11:12:05;;;;;;;;;;;;;;;28.13;41.38;98467.64;612120;232;65116;-66
2022/12/20 11:14:34;;;;;;;;;;;;;;;28.13;41.27;98463.07;612105;232;65740;-66
2022/12/20 11:17:03;;;;;;;;;;;;;;;28.17;41.04;98463.30;611961;232;65335;-66
2022/12/20 11:19:35;;;;;;;;;;;;;;;28.18;40.65;98462.20;611384;232;62912;-66
2022/12/20 11:22:20;;;;;;;;;;;;;;;28.19;42.37;98451.12;611804;231;65023;-67
2022/12/20 11:24:49;;;;;;;;;;;;;;;28.17;42.53;98437.07;611914;232;67097;-66
2022/12/20 11:27:19;;;;;;;;;;;;;;;28.18;42.73;98435.17;611838;232;65051;-64
2022/12/20 11:29:56;;;;;;;;;;;;;;;28.18;42.16;98429.77;603526;232;67303;-65
2022/12/20 11:32:34;;;;;;;;;;;;;;;28.17;43.30;98434.37;603052;235;64805;-65
2022/12/20 11:35:19;;;;;;;;;;;;;;;28.17;40.33;98436.27;602573;234;64983;-65
2022/12/20 11:37:52;;;;;;;;;;;;;;;28.19;40.55;98429.49;603021;235;66945;-65
2022/12/20 11:40:27;;;;;;;;;;;;;;;28.21;40.73;98416.51;600248;235;67262;-65
2022/12/20 11:43:06;;;;;;;;;;;;;;;28.24;43.00;98420.54;600164;235;66662;-66
2022/12/20 11:45:44;;;;;;;;;;;;;;;28.24;41.34;98412.43;602987;235;67522;-67
2022/12/20 11:48:25;;;;;;;;;;;;;;;28.26;41.77;98412.93;602867;234;67126;-69
2022/12/20 11:50:54;;;;;;;;;;;;;;;28.26;40.55;98407.52;602928;234;65294;-68
2022/12/20 11:53:35;;;;;;;;;;;;;;;28.27;40.76;98409.95;603009;235;67078;-68
2022/12/20 11:56:14;;;;;;;;;;;;;;;28.29;41.04;98412.36;603047;235;65130;-68
2022/12/20 11:58:43;;;;;;;;;;;;;;;28.27;42.10;98403.75;603074;235;65115;-68
2022/12/20 12:01:19;;;;;;;;;;;;;;;28.26;41.82;98407.52;603113;235;64874;-70
2022/12/20 12:03:55;;;;;;;;;;;;;;;28.23;40.67;98400.78;603086;235;66755;-68
2022/12/20 12:06:31;;;;;;;;;;;;;;;28.23;43.22;98402.69;602962;234;43240;-67
2022/12/20 12:09:02;;;;;;;;;;;;;;;28.21;42.40;98400.29;603099;234;47978;-70
2022/12/20 12:11:31;;;;;;;;;;;;;;;28.22;42.56;98395.69;603075;235;64967;-69
2022/12/20 12:14:00;;;;;;;;;;;;;;;28.21;41.31;98402.16;603050;235;62833;-69
2022/12/20 12:16:30;;;;;;;;;;;;;;;28.20;40.57;98397.86;603121;235;67973;-69
2022/12/20 12:19:00;;;;;;;;;;;;;;;28.24;42.49;98404.32;602752;234;46713;-69
2022/12/20 12:21:34;;;;;;;;;;;;;;;28.25;40.99;98405.92;603013;235;64867;-69
2022/12/20 12:24:04;;;;;;;;;;;;;;;28.27;42.91;98411.86;602938;234;67164;-68
2022/12/20 12:26:39;;;;;;;;;;;;;;;28.27;40.77;98403.75;602312;235;66711;-70
2022/12/20 12:29:11;;;;;;;;;;;;;;;28.30;40.40;98413.98;608127;232;65000;-69
2022/12/20 12:31:41;;;;;;;;;;;;;;;28.29;42.01;98410.48;610449;232;65824;-68
2022/12/20 12:34:12;;;;;;;;;;;;;;;28.26;41.45;98411.02;609435;232;67267;-69
2022/12/20 12:36:51;;;;;;;;;;;;;;;28.23;43.72;98408.89;610449;232;45294;-69
2022/12/20 12:39:20;;;;;;;;;;;;;;;28.21;41.77;98413.80;610396;232;67110;-69
2022/12/20 12:41:51;;;;;;;;;;;;;;;28.19;40.65;98413.27;610056;232;67103;-69
2022/12/20 12:44:26;;;;;;;;;;;;;;;28.19;40.53;98409.77;609315;232;44399;-69
2022/12/20 12:46:57;;;;;;;;;;;;;;;28.18;40.39;98413.55;610210;232;67104;-69
2022/12/20 12:49:26;;;;;;;;;;;;;;;28.18;42.61;98408.14;610091;232;66912;-68
2022/12/20 12:51:57;;;;;;;;;;;;;;;28.16;41.59;98405.73;610498;232;45216;-69
2022/12/20 12:54:26;;;;;;;;;;;;;;;28.15;42.08;98408.71;610371;232;64571;-68
2022/12/20 12:57:02;;;;;;;;;;;;;;;28.15;42.32;98400.60;610200;232;49410;-69
2022/12/20 12:59:35;;;;;;;;;;;;;;;28.13;42.18;98395.50;609455;232;65193;-70
2022/12/20 13:02:06;;;;;;;;;;;;;;;28.13;41.67;98392.80;610196;232;45557;-68
2022/12/20 13:04:54;;;;;;;;;;;;;;;28.13;42.70;98389.27;610404;232;64939;-68
2022/12/20 13:07:26;;;;;;;;;;;;;;;28.14;42.61;98388.20;610291;232;65053;-68
2022/12/20 13:09:57;;;;;;;;;;;;;;;28.13;41.91;98381.16;610128;232;67217;-69
2022/12/20 13:12:41;;;;;;;;;;;;;;;28.11;41.71;98379.55;610390;232;66979;-69
2022/12/20 13:15:22;;;;;;;;;;;;;;;28.11;42.71;98382.26;605075;234;65100;-69